Time;durP1;ratioP1;P1;durP2;ratioP2;P2;SDS_P1;SDS_P2;PMS_P1;PMS_P2;Temp;Humidity;BMP_temperature;BMP_pressure;BME280_temperature;BME280_humidity;BME280_pressure;Samples;Min_cycle;Max_cycle;Signal;HPM_P1;HPM_P2
2023/04/12 00:00:18;;;;;;;1.73;0.75;;;;;;;2.52;35.32;97203.16;6287012;28;20454;-57
2023/04/12 00:03:20;;;;;;;1.30;0.88;;;;;;;2.54;35.24;97205.69;6290440;28;20059;-58
2023/04/12 00:06:31;;;;;;;2.90;0.85;;;;;;;2.44;35.48;97194.72;6285702;28;20122;-57
2023/04/12 00:09:35;;;;;;;2.42;0.90;;;;;;;2.35;35.85;97205.31;6290509;28;20063;-57
2023/04/12 00:12:36;;;;;;;4.20;1.00;;;;;;;2.26;36.07;97209.00;6287792;28;20059;-55
2023/04/12 00:15:39;;;;;;;2.42;1.80;;;;;;;2.17;36.57;97211.88;6284650;28;20051;-57
2023/04/12 00:18:41;;;;;;;1.02;0.70;;;;;;;2.16;36.43;97210.16;6290578;28;20037;-57
2023/04/12 00:21:43;;;;;;;2.97;1.15;;;;;;;2.18;36.06;97213.56;6288205;28;20052;-59
2023/04/12 00:24:46;;;;;;;2.00;1.08;;;;;;;2.24;35.72;97203.88;6291210;28;20152;-58
2023/04/12 00:27:49;;;;;;;1.43;1.00;;;;;;;2.23;35.85;97209.94;6285062;28;20040;-58
2023/04/12 00:30:54;;;;;;;1.77;1.13;;;;;;;2.22;36.15;97210.84;6286887;28;20036;-59
2023/04/12 00:33:55;;;;;;;2.67;1.05;;;;;;;2.20;36.15;97207.44;6291481;28;20050;-57
2023/04/12 00:37:01;;;;;;;1.80;0.95;;;;;;;2.25;35.52;97200.38;6291953;28;20506;-57
2023/04/12 00:40:08;;;;;;;2.80;0.70;;;;;;;2.49;35.35;97218.78;6291123;28;20045;-57
2023/04/12 00:43:17;;;;;;;3.80;0.90;;;;;;;2.36;35.76;97215.69;6288869;28;20040;-58
2023/04/12 00:46:18;;;;;;;0.80;0.75;;;;;;;2.33;35.78;97215.75;6290373;28;20049;-59
2023/04/12 00:49:20;;;;;;;0.75;0.70;;;;;;;2.27;35.39;97212.50;6289872;28;20677;-59
2023/04/12 00:52:22;;;;;;;2.13;0.65;;;;;;;2.40;35.46;97229.44;6288090;28;20048;-58
2023/04/12 00:55:23;;;;;;;1.75;0.75;;;;;;;2.40;35.66;97230.28;6290425;28;20059;-57
2023/04/12 00:58:27;;;;;;;1.83;0.80;;;;;;;2.43;35.34;97234.53;6289487;28;20040;-58
2023/04/12 01:01:30;;;;;;;1.77;0.65;;;;;;;2.42;35.64;97238.03;6284743;28;20044;-58
2023/04/12 01:04:33;;;;;;;1.03;0.70;;;;;;;2.42;35.46;97233.69;6288860;28;20055;-56
2023/04/12 01:07:46;;;;;;;2.25;0.90;;;;;;;2.40;35.29;97232.03;6284553;28;20045;-58
2023/04/12 01:10:58;;;;;;;1.52;0.95;;;;;;;2.38;35.68;97229.50;6286950;28;20394;-59
2023/04/12 01:14:29;;;;;;;1.33;0.70;;;;;;;2.44;35.65;97226.72;6284529;28;20526;-58
2023/04/12 01:18:03;;;;;;;1.25;0.85;;;;;;;2.38;35.41;97231.25;6286595;28;20063;-59
2023/04/12 01:21:08;;;;;;;3.25;0.80;;;;;;;2.48;35.60;97224.88;6285682;28;20040;-59
2023/04/12 01:24:45;;;;;;;1.70;1.13;;;;;;;2.51;35.40;97232.59;6285278;28;20506;-58
2023/04/12 01:27:55;;;;;;;3.63;1.15;;;;;;;2.54;35.66;97227.31;6286156;28;20177;-54
2023/04/12 01:30:57;;;;;;;3.17;1.48;;;;;;;2.42;35.76;97228.50;6292381;28;20421;-59
2023/04/12 01:34:05;;;;;;;2.65;1.02;;;;;;;2.42;36.02;97222.47;6295426;28;20142;-55
2023/04/12 01:37:07;;;;;;;2.17;0.95;;;;;;;2.44;35.83;97226.72;6292730;28;20067;-59
2023/04/12 01:40:09;;;;;;;2.25;1.00;;;;;;;2.40;36.11;97229.44;6288537;28;20044;-56
2023/04/12 01:43:12;;;;;;;3.30;1.25;;;;;;;2.33;36.25;97207.13;6289593;28;20049;-57
2023/04/12 01:46:17;;;;;;;1.95;1.00;;;;;;;2.40;36.45;97224.25;6289876;28;20043;-59
2023/04/12 01:49:35;;;;;;;3.05;0.98;;;;;;;2.35;36.53;97226.09;6288704;28;20037;-59
2023/04/12 01:52:48;;;;;;;1.63;0.77;;;;;;;2.37;36.73;97226.91;6290756;28;20138;-57
2023/04/12 01:55:50;;;;;;;2.20;0.90;;;;;;;2.41;36.72;97216.41;6290563;28;20039;-60
2023/04/12 01:58:54;;;;;;;1.95;0.68;;;;;;;2.39;36.30;97223.38;6289426;28;20043;-58
2023/04/12 02:01:58;;;;;;;3.13;1.20;;;;;;;2.42;36.76;97231.09;6288911;28;20037;-57
2023/04/12 02:05:03;;;;;;;2.13;1.02;;;;;;;2.61;36.63;97226.25;6289474;28;20044;-58
2023/04/12 02:08:05;;;;;;;2.20;0.80;;;;;;;2.80;36.57;97228.34;6292554;28;20040;-58
2023/04/12 02:11:08;;;;;;;2.20;1.13;;;;;;;2.81;36.40;97230.06;6293379;28;20430;-57
2023/04/12 02:14:14;;;;;;;4.60;1.88;;;;;;;2.86;36.38;97234.22;6288763;28;20624;-57
2023/04/12 02:17:18;;;;;;;7.90;1.40;;;;;;;2.90;36.30;97234.97;6291751;28;20041;-57
2023/04/12 02:20:23;;;;;;;3.60;1.20;;;;;;;3.03;36.04;97236.34;6291396;28;20036;-60
2023/04/12 02:23:29;;;;;;;2.83;1.27;;;;;;;3.21;35.73;97247.09;6290578;28;20040;-58
2023/04/12 02:26:37;;;;;;;3.30;1.30;;;;;;;3.18;35.85;97244.59;6286937;28;20094;-58
2023/04/12 02:29:41;;;;;;;2.25;1.20;;;;;;;3.30;36.03;97244.22;6290370;28;20044;-59
2023/04/12 02:32:45;;;;;;;2.65;1.23;;;;;;;3.27;36.23;97244.31;6291384;28;20545;-59
2023/04/12 02:35:48;;;;;;;4.28;1.00;;;;;;;3.33;36.16;97238.91;6292976;28;20040;-59
2023/04/12 02:38:53;;;;;;;2.08;1.05;;;;;;;3.45;36.30;97235.94;6290826;28;20041;-57
2023/04/12 02:41:55;;;;;;;1.55;0.88;;;;;;;3.45;36.25;97238.53;6287507;28;20044;-54
2023/04/12 02:44:57;;;;;;;4.35;1.20;;;;;;;3.54;36.07;97227.88;6291784;28;20554;-55
2023/04/12 02:47:58;;;;;;;2.20;0.95;;;;;;;3.65;35.90;97229.25;6290596;28;20048;-59
2023/04/12 02:50:59;;;;;;;1.75;1.10;;;;;;;3.77;35.89;97221.09;6288481;28;20044;-60
2023/04/12 02:54:01;;;;;;;9.18;1.52;;;;;;;3.81;36.03;97214.88;6293686;28;20045;-59
2023/04/12 02:57:05;;;;;;;2.17;0.95;;;;;;;3.91;36.02;97221.50;6293171;28;20048;-58
2023/04/12 03:00:14;;;;;;;3.05;1.15;;;;;;;4.09;36.00;97214.81;6285236;28;20053;-60
2023/04/12 03:03:18;;;;;;;3.75;1.02;;;;;;;4.18;35.89;97209.28;6282885;28;20037;-60
2023/04/12 03:06:19;;;;;;;2.85;0.95;;;;;;;4.30;36.08;97208.00;6288676;28;20042;-60
2023/04/12 03:09:26;;;;;;;3.35;1.40;;;;;;;4.45;35.88;97217.91;6284552;28;20037;-59
2023/04/12 03:12:28;;;;;;;2.25;0.95;;;;;;;4.62;35.98;97221.69;6281763;28;20048;-60
2023/04/12 03:15:34;;;;;;;2.75;0.88;;;;;;;4.77;35.70;97218.50;6288838;28;20094;-59
2023/04/12 03:18:37;;;;;;;2.95;0.85;;;;;;;4.95;35.32;97217.88;6289495;28;20047;-59
2023/04/12 03:21:41;;;;;;;1.35;1.02;;;;;;;5.14;34.84;97225.81;6280354;28;20426;-58
2023/04/12 03:24:45;;;;;;;2.45;1.05;;;;;;;5.39;34.39;97217.06;6289639;28;20047;-58
2023/04/12 03:27:46;;;;;;;2.00;0.90;;;;;;;5.52;34.26;97207.00;6290223;28;20422;-59
2023/04/12 03:30:48;;;;;;;3.10;1.00;;;;;;;5.59;34.01;97203.25;6288417;28;20391;-59
2023/04/12 03:33:50;;;;;;;1.73;1.10;;;;;;;5.79;33.29;97205.91;6291906;28;20043;-58
2023/04/12 03:36:51;;;;;;;1.13;0.80;;;;;;;6.00;33.04;97208.56;6289056;28;20054;-61
2023/04/12 03:39:55;;;;;;;1.00;0.80;;;;;;;6.15;32.35;97202.72;6288929;28;20401;-60
2023/04/12 03:42:59;;;;;;;2.38;0.90;;;;;;;6.26;32.18;97213.59;6289500;28;20048;-59
2023/04/12 03:46:02;;;;;;;1.85;0.80;;;;;;;6.36;32.67;97221.03;6286803;28;20051;-59
2023/04/12 03:49:03;;;;;;;2.10;1.10;;;;;;;6.60;32.41;97219.97;6287771;28;20037;-59
2023/04/12 03:52:08;;;;;;;1.67;0.90;;;;;;;6.68;32.39;97211.78;6288926;28;20482;-58
2023/04/12 03:55:12;;;;;;;2.88;1.27;;;;;;;6.75;32.02;97219.31;6281274;28;20044;-58
2023/04/12 03:58:15;;;;;;;2.38;1.35;;;;;;;6.87;32.03;97214.44;6289156;28;20125;-60
2023/04/12 04:01:16;;;;;;;0.93;0.63;;;;;;;6.88;31.81;97213.50;6287961;28;20048;-57
2023/04/12 04:04:22;;;;;;;1.88;1.20;;;;;;;7.04;31.46;97213.69;6283874;28;20040;-60
2023/04/12 04:07:24;;;;;;;1.92;1.25;;;;;;;7.08;30.88;97215.25;6284040;28;20151;-60
2023/04/12 04:10:30;;;;;;;2.30;0.68;;;;;;;7.17;30.67;97220.06;6288847;28;20036;-61
2023/04/12 04:13:36;;;;;;;2.45;1.02;;;;;;;7.22;30.46;97231.19;6288430;28;20536;-58
2023/04/12 04:16:42;;;;;;;2.13;0.70;;;;;;;7.25;30.56;97220.56;6285508;28;20496;-59
2023/04/12 04:19:44;;;;;;;1.38;0.90;;;;;;;7.34;30.53;97221.91;6288395;28;20043;-58
2023/04/12 04:22:52;;;;;;;1.23;0.60;;;;;;;7.42;30.84;97225.03;6289407;28;20052;-61
2023/04/12 04:25:54;;;;;;;3.08;0.80;;;;;;;7.44;30.91;97217.94;6288843;28;20040;-60
2023/04/12 04:29:00;;;;;;;3.05;0.88;;;;;;;7.69;30.70;97222.88;6290316;28;20040;-59
2023/04/12 04:32:02;;;;;;;;;;;;;;;7.65;30.70;97216.94;6289445;28;20052;-61
2023/04/12 04:35:04;;;;;;;1.30;0.60;;;;;;;7.62;30.78;97209.22;6282255;28;19924;-60
2023/04/12 04:38:06;;;;;;;2.55;0.60;;;;;;;7.86;30.48;97220.28;6284952;28;20573;-60
2023/04/12 04:41:11;;;;;;;1.55;0.60;;;;;;;8.10;30.16;97213.00;6290401;28;20502;-57
2023/04/12 04:44:13;;;;;;;1.50;0.70;;;;;;;8.30;30.17;97219.03;6287012;28;20052;-60
2023/04/12 04:47:14;;;;;;;2.65;0.93;;;;;;;8.39;30.18;97212.50;6281355;28;20040;-60
2023/04/12 04:50:16;;;;;;;3.33;0.73;;;;;;;8.56;29.82;97211.66;6288541;28;20044;-59
2023/04/12 04:53:24;;;;;;;2.72;0.60;;;;;;;8.66;29.69;97211.09;6289250;28;20051;-58
2023/04/12 04:56:31;;;;;;;1.25;0.50;;;;;;;8.81;29.69;97217.31;6282379;28;20045;-60
2023/04/12 04:59:37;;;;;;;1.55;0.70;;;;;;;8.95;29.68;97203.47;6286706;28;20036;-59
2023/04/12 05:02:41;;;;;;;1.95;0.70;;;;;;;9.21;29.43;97209.94;6281917;28;20056;-59
2023/04/12 05:05:43;;;;;;;3.67;1.02;;;;;;;9.33;29.10;97217.16;6292705;28;20041;-58
2023/04/12 05:08:44;;;;;;;3.35;0.85;;;;;;;9.48;29.07;97204.94;6294298;28;20052;-58
2023/04/12 05:11:45;;;;;;;2.00;1.00;;;;;;;9.62;29.02;97206.81;6290286;28;20041;-58
2023/04/12 05:14:47;;;;;;;1.95;0.63;;;;;;;9.70;28.86;97209.03;6289986;28;20048;-60
2023/04/12 05:17:48;;;;;;;3.33;0.85;;;;;;;9.84;28.73;97209.94;6294059;28;20033;-59
2023/04/12 05:20:51;;;;;;;1.65;0.50;;;;;;;10.15;28.32;97205.56;6286424;28;20037;-61
2023/04/12 05:23:53;;;;;;;0.43;0.40;;;;;;;14.07;24.44;97208.06;6290042;28;20032;-59
2023/04/12 05:26:59;;;;;;;2.83;0.85;;;;;;;19.18;19.37;97223.81;6294960;28;20045;-60
2023/04/12 05:30:00;;;;;;;2.90;0.60;;;;;;;23.51;16.19;97238.25;6289793;28;20127;-59
2023/04/12 05:33:02;;;;;;;2.00;0.50;;;;;;;26.30;13.72;97226.16;6289282;28;20438;-61
2023/04/12 05:36:06;;;;;;;1.80;0.45;;;;;;;28.15;12.13;97237.66;6288977;28;20052;-59
2023/04/12 05:39:10;;;;;;;0.32;0.20;;;;;;;30.16;10.83;97236.72;6290285;28;20040;-60
2023/04/12 05:42:14;;;;;;;1.33;0.55;;;;;;;31.79;9.45;97227.91;6291637;28;20057;-59
2023/04/12 05:45:18;;;;;;;6.80;0.60;;;;;;;32.38;9.45;97236.41;6292856;28;20044;-60
2023/04/12 05:48:22;;;;;;;1.05;0.40;;;;;;;32.57;8.88;97240.81;6289296;28;20041;-60
2023/04/12 05:51:26;;;;;;;1.35;0.40;;;;;;;32.30;8.85;97234.00;6289416;28;20101;-59
2023/04/12 05:54:28;;;;;;;1.00;0.35;;;;;;;33.25;8.32;97233.31;6289014;28;23337;-60
2023/04/12 05:57:34;;;;;;;4.20;0.63;;;;;;;34.01;7.67;97239.72;6293195;28;20501;-60
2023/04/12 06:00:40;;;;;;;0.68;0.40;;;;;;;33.59;7.97;97225.41;6283519;28;20530;-60
2023/04/12 06:03:48;;;;;;;1.58;0.40;;;;;;;34.32;7.30;97235.75;6292517;28;20425;-59
2023/04/12 06:06:55;;;;;;;1.00;0.22;;;;;;;35.70;6.83;97230.03;6290089;28;20040;-59
2023/04/12 06:09:56;;;;;;;0.35;0.30;;;;;;;37.13;6.21;97241.09;6284922;28;20086;-59
2023/04/12 06:12:57;;;;;;;2.70;0.60;;;;;;;38.02;5.76;97242.31;6290683;28;20049;-59
2023/04/12 06:15:59;;;;;;;1.83;0.50;;;;;;;38.80;5.59;97221.16;6285665;28;20478;-60
2023/04/12 06:19:00;;;;;;;3.25;0.70;;;;;;;39.11;5.27;97226.72;6290882;28;20041;-60
2023/04/12 06:22:04;;;;;;;5.05;0.60;;;;;;;39.87;5.15;97219.56;6286810;28;20454;-59
2023/04/12 06:25:08;;;;;;;2.78;0.55;;;;;;;39.05;5.07;97216.81;6286328;28;20039;-60
2023/04/12 06:28:12;;;;;;;2.08;0.50;;;;;;;39.02;5.13;97209.13;6283566;28;20446;-60
2023/04/12 06:31:15;;;;;;;1.88;0.50;;;;;;;39.06;5.02;97207.47;6283336;28;20041;-60
2023/04/12 06:34:17;;;;;;;0.70;0.25;;;;;;;40.34;4.87;97210.88;6289334;28;20707;-60
2023/04/12 06:37:18;;;;;;;1.65;0.60;;;;;;;41.01;4.45;97205.75;6289527;28;20094;-60
2023/04/12 06:40:20;;;;;;;2.53;0.75;;;;;;;40.76;4.41;97219.75;6293026;28;20207;-60
2023/04/12 06:43:24;;;;;;;3.15;0.40;;;;;;;39.85;4.76;97208.81;6289287;28;20114;-58
2023/04/12 06:46:28;;;;;;;1.83;0.32;;;;;;;39.39;5.10;97206.13;6286297;28;20044;-59
2023/04/12 06:49:30;;;;;;;6.38;1.02;;;;;;;39.86;4.48;97193.09;6280030;28;20128;-61
2023/04/12 06:52:33;;;;;;;5.30;0.57;;;;;;;39.33;4.80;97195.41;6291747;28;20705;-61
2023/04/12 06:55:40;;;;;;;2.65;0.95;;;;;;;38.89;5.00;97196.72;6287383;28;20040;-59
2023/04/12 06:58:44;;;;;;;4.47;0.68;;;;;;;39.48;5.03;97195.38;6281522;28;20075;-60
2023/04/12 07:01:47;;;;;;;1.35;0.43;;;;;;;40.01;4.39;97184.78;6292634;28;20047;-59
2023/04/12 07:04:53;;;;;;;0.50;0.40;;;;;;;40.00;4.67;97183.13;6290338;28;20045;-60
2023/04/12 07:07:54;;;;;;;2.67;0.55;;;;;;;40.01;4.57;97186.72;6281984;28;20040;-60
2023/04/12 07:11:00;;;;;;;1.50;0.65;;;;;;;39.29;4.76;97179.41;6292894;28;20040;-61
2023/04/12 07:14:01;;;;;;;1.95;0.80;;;;;;;38.63;4.69;97166.41;6288968;28;20053;-60
2023/04/12 07:17:02;;;;;;;1.15;0.47;;;;;;;38.21;5.08;97180.28;6287524;28;20151;-61
2023/04/12 07:20:07;;;;;;;0.50;0.30;;;;;;;39.59;4.36;97187.91;6289029;28;20040;-60
2023/04/12 07:23:14;;;;;;;1.30;0.22;;;;;;;40.66;4.22;97189.47;6288761;28;20048;-60
2023/04/12 07:26:18;;;;;;;1.15;0.35;;;;;;;40.46;4.22;97187.66;6285418;28;20135;-59
2023/04/12 07:29:19;;;;;;;2.58;0.40;;;;;;;40.65;4.22;97169.31;6289894;28;20048;-59
2023/04/12 07:32:21;;;;;;;;;;;;;;;42.73;4.08;97175.75;6269390;28;20418;-60
2023/04/12 07:35:25;;;;;;;2.47;0.40;;;;;;;41.99;3.77;97169.00;6290317;28;19920;-59
2023/04/12 07:38:30;;;;;;;1.88;0.43;;;;;;;41.84;3.50;97162.50;6280365;28;20518;-60
2023/04/12 07:41:31;;;;;;;15.77;1.92;;;;;;;41.35;3.77;97177.34;6290615;28;20051;-59
2023/04/12 07:44:32;;;;;;;5.72;0.80;;;;;;;40.55;3.90;97175.72;6282856;28;20424;-59
2023/04/12 07:47:34;;;;;;;1.85;0.80;;;;;;;40.16;3.94;97161.84;6280681;28;20051;-59
2023/04/12 07:50:40;;;;;;;2.15;0.73;;;;;;;41.26;3.57;97168.06;6280267;28;20044;-60
2023/04/12 07:53:41;;;;;;;2.05;1.10;;;;;;;42.07;3.57;97165.53;6282686;28;20044;-60
2023/04/12 07:56:56;;;;;;;;;;;;;;;44.25;3.25;97172.47;6288806;28;20496;-60
2023/04/12 07:59:57;;;;;;;4.50;0.63;;;;;;;42.89;3.11;97156.13;6285114;28;20512;-60
2023/04/12 08:03:01;;;;;;;0.57;0.30;;;;;;;42.47;3.11;97155.09;6291697;28;20040;-59
2023/04/12 08:06:02;;;;;;;1.92;0.70;;;;;;;42.27;3.30;97151.47;6290148;28;20048;-59
2023/04/12 08:09:06;;;;;;;5.60;0.90;;;;;;;41.62;3.37;97151.16;6289062;28;20182;-59
2023/04/12 08:12:10;;;;;;;3.28;1.00;;;;;;;41.60;3.54;97137.63;6285689;28;20556;-59
2023/04/12 08:15:14;;;;;;;4.00;0.95;;;;;;;42.11;3.52;97148.09;6286381;28;20052;-60
2023/04/12 08:18:18;;;;;;;5.80;1.17;;;;;;;41.80;2.82;97142.09;6288372;28;20401;-60
2023/04/12 08:21:19;;;;;;;6.93;1.33;;;;;;;40.11;3.74;97137.88;6286167;28;20528;-59
2023/04/12 08:24:21;;;;;;;;;;;;;;;40.81;3.50;97150.72;6284691;28;20048;-59
2023/04/12 08:27:25;;;;;;;6.57;1.20;;;;;;;39.54;3.91;97141.91;6286650;28;19927;-59
2023/04/12 08:30:27;;;;;;;;;;;;;;;40.73;3.60;97146.66;6285900;28;20186;-59
2023/04/12 08:33:28;;;;;;;2.07;0.47;;;;;;;39.88;3.87;97131.09;6285198;28;19973;-59
2023/04/12 08:36:29;;;;;;;1.10;0.65;;;;;;;40.34;3.58;97128.16;6289585;28;20056;-60
2023/04/12 08:39:31;;;;;;;3.53;0.60;;;;;;;41.77;3.34;97133.56;6296831;28;20851;-60
2023/04/12 08:42:39;;;;;;;1.00;0.77;;;;;;;41.50;3.37;97138.56;6288062;28;20040;-59
2023/04/12 08:45:43;;;;;;;3.50;1.17;;;;;;;40.62;3.66;97139.53;6291158;28;20047;-58
2023/04/12 08:48:45;;;;;;;;;;;;;;;40.60;3.54;97128.78;6295075;28;20086;-61
2023/04/12 08:51:53;;;;;;;1.63;1.23;;;;;;;37.53;4.79;97126.13;6292981;28;20019;-60
2023/04/12 08:55:01;;;;;;;2.50;0.88;;;;;;;37.64;4.61;97109.72;6294098;28;20051;-62
2023/04/12 08:58:06;;;;;;;6.22;1.70;;;;;;;37.49;4.34;97108.56;6295051;28;20498;-65
2023/04/12 09:01:12;;;;;;;4.03;1.60;;;;;;;36.70;5.12;97111.25;6291444;28;20048;-60
2023/04/12 09:04:16;;;;;;;2.88;1.05;;;;;;;37.24;4.84;97108.38;6290187;28;20537;-60
2023/04/12 09:07:26;;;;;;;1.38;1.00;;;;;;;38.11;4.24;97095.91;6295679;28;20051;-59
2023/04/12 09:10:35;;;;;;;2.83;1.17;;;;;;;37.78;4.11;97093.59;6293306;28;20048;-59
2023/04/12 09:13:39;;;;;;;2.30;0.95;;;;;;;37.48;4.49;97073.13;6291094;28;20190;-59
2023/04/12 09:16:43;;;;;;;10.38;2.05;;;;;;;36.44;5.19;97080.84;6287276;28;20037;-60
2023/04/12 09:19:48;;;;;;;3.33;1.30;;;;;;;35.19;5.23;97065.09;6294874;28;20441;-59
2023/04/12 09:22:51;;;;;;;5.50;1.55;;;;;;;34.07;5.80;97072.22;6293186;28;20044;-60
2023/04/12 09:25:55;;;;;;;1.80;1.25;;;;;;;33.44;6.01;97079.38;6295618;28;20045;-59
2023/04/12 09:29:03;;;;;;;2.22;1.25;;;;;;;33.88;6.01;97070.72;6295348;28;20048;-60
2023/04/12 09:32:07;;;;;;;7.32;1.83;;;;;;;34.42;5.80;97069.31;6289425;28;20063;-59
2023/04/12 09:35:08;;;;;;;2.78;1.67;;;;;;;34.05;6.02;97070.81;6291611;28;20429;-59
2023/04/12 09:38:12;;;;;;;2.25;1.20;;;;;;;34.65;5.57;97075.72;6294765;28;20425;-60
2023/04/12 09:41:29;;;;;;;2.15;1.50;;;;;;;35.29;5.41;97065.22;6295376;28;20040;-59
2023/04/12 09:44:30;;;;;;;3.08;1.52;;;;;;;35.87;5.51;97067.59;6294561;28;20112;-60
2023/04/12 09:47:39;;;;;;;1.80;1.00;;;;;;;35.51;5.32;97061.69;6294800;28;20131;-58
2023/04/12 09:50:41;;;;;;;1.75;0.85;;;;;;;34.64;5.62;97046.75;6295493;28;20039;-59
2023/04/12 09:53:47;;;;;;;5.03;1.43;;;;;;;34.17;5.85;97047.03;6293809;28;20055;-59
2023/04/12 09:56:53;;;;;;;2.45;1.35;;;;;;;33.31;6.28;97044.19;6293285;28;20036;-60
2023/04/12 09:59:59;;;;;;;5.50;1.80;;;;;;;32.11;6.46;97038.03;6293186;28;20514;-59
2023/04/12 10:03:01;;;;;;;2.28;1.15;;;;;;;31.49;7.03;97049.13;6289874;28;20422;-60
2023/04/12 10:06:05;;;;;;;4.47;1.38;;;;;;;31.81;6.47;97032.56;6291715;28;20043;-59
2023/04/12 10:09:07;;;;;;;3.93;1.30;;;;;;;32.80;6.20;97037.56;6294633;28;20340;-58
2023/04/12 10:12:11;;;;;;;4.75;1.52;;;;;;;32.45;6.11;97038.34;6288366;28;20524;-59
2023/04/12 10:15:16;;;;;;;2.00;1.40;;;;;;;32.25;6.44;97013.34;6291373;28;20039;-60
2023/04/12 10:18:22;;;;;;;3.80;1.60;;;;;;;32.04;5.98;97023.69;6291992;28;20051;-60
2023/04/12 10:21:26;;;;;;;5.40;1.98;;;;;;;31.25;6.74;97018.22;6294715;28;20521;-60
2023/04/12 10:24:31;;;;;;;5.03;1.73;;;;;;;30.98;6.35;97014.97;6289396;28;20109;-59
2023/04/12 10:27:32;;;;;;;3.42;1.33;;;;;;;30.68;6.71;97019.41;6289487;28;20119;-59
2023/04/12 10:30:34;;;;;;;1.80;1.30;;;;;;;30.63;6.68;97006.50;6293873;28;20036;-59
2023/04/12 10:33:37;;;;;;;1.30;1.20;;;;;;;30.87;6.48;97008.38;6293958;28;20062;-60
2023/04/12 10:36:54;;;;;;;;;;;;;;;32.19;5.96;97007.75;6294313;28;20089;-59
2023/04/12 10:39:56;;;;;;;4.18;1.27;;;;;;;31.68;6.28;97005.59;6290264;28;19923;-59
2023/04/12 10:43:29;;;;;;;3.90;1.50;;;;;;;32.11;6.30;96989.03;6287318;28;20032;-59
2023/04/12 10:46:54;;;;;;;5.47;2.00;;;;;;;29.97;7.16;97002.41;6253987;28;20037;-66
2023/04/12 10:50:25;;;;;;;4.55;1.58;;;;;;;29.22;7.58;97004.91;6302976;28;20052;-63
2023/04/12 10:53:30;;;;;;;1.80;1.60;;;;;;;29.96;7.41;97001.59;6290256;28;20039;-62
2023/04/12 10:56:31;;;;;;;5.28;1.33;;;;;;;30.58;7.20;96993.59;6291940;28;20401;-62
2023/04/12 10:59:51;;;;;;;5.63;2.00;;;;;;;30.07;7.02;96997.34;6292555;28;20071;-66
2023/04/12 11:03:11;;;;;;;6.45;1.48;;;;;;;28.88;8.00;96993.31;6290855;28;20048;-62
2023/04/12 11:06:15;;;;;;;7.10;2.13;;;;;;;28.21;8.04;96992.53;6292516;28;20524;-63
2023/04/12 11:09:42;;;;;;;2.42;1.42;;;;;;;28.04;8.07;96983.16;6290498;28;20032;-62
2023/04/12 11:12:55;;;;;;;1.40;1.17;;;;;;;28.39;8.06;96972.94;6285780;28;20052;-62
2023/04/12 11:16:04;;;;;;;2.50;1.83;;;;;;;28.41;8.11;96965.44;6284193;28;20052;-61
2023/04/12 11:19:08;;;;;;;3.45;1.90;;;;;;;27.90;8.42;96976.91;6283589;28;20083;-62
2023/04/12 11:22:12;;;;;;;2.83;1.77;;;;;;;27.62;8.24;96967.03;6289831;28;20055;-63
2023/04/12 11:25:16;;;;;;;13.40;1.95;;;;;;;27.46;8.87;96975.53;6292231;28;20056;-60
2023/04/12 11:28:22;;;;;;;3.60;1.83;;;;;;;27.03;8.63;96978.44;6291110;28;20517;-63
2023/04/12 11:31:23;;;;;;;5.03;3.38;;;;;;;26.45;8.86;96965.22;6291245;28;20059;-62
2023/04/12 11:34:31;;;;;;;3.30;1.60;;;;;;;26.19;9.05;96960.50;6286073;28;20103;-66
2023/04/12 11:37:38;;;;;;;3.65;1.60;;;;;;;26.35;9.06;96960.16;6284895;28;20047;-62
2023/04/12 11:40:41;;;;;;;1.50;1.27;;;;;;;28.10;8.26;96958.81;6287404;28;20132;-59
2023/04/12 11:43:46;;;;;;;3.83;1.70;;;;;;;28.77;7.92;96942.50;6288872;28;20044;-61
2023/04/12 11:46:53;;;;;;;8.05;2.00;;;;;;;28.14;8.15;96943.84;6288976;28;20047;-62
2023/04/12 11:50:00;;;;;;;7.00;1.33;;;;;;;27.51;8.32;96937.91;6289749;28;20033;-61
2023/04/12 11:53:12;;;;;;;6.68;1.52;;;;;;;26.87;8.75;96953.47;6286593;28;20040;-62
2023/04/12 11:56:16;;;;;;;16.63;2.20;;;;;;;25.96;9.55;96952.63;6286396;28;20480;-61
2023/04/12 11:59:19;;;;;;;4.63;1.85;;;;;;;25.58;9.59;96942.09;6286580;28;20037;-59
2023/04/12 12:02:21;;;;;;;7.85;1.85;;;;;;;24.78;9.92;96940.31;6279402;28;20040;-61
2023/04/12 12:05:24;;;;;;;3.65;1.60;;;;;;;24.07;10.30;96943.41;6289221;28;20149;-61
2023/04/12 12:08:29;;;;;;;5.28;1.50;;;;;;;23.56;10.46;96937.75;6282650;28;20056;-62
2023/04/12 12:11:32;;;;;;;5.40;1.90;;;;;;;23.35;10.83;96956.38;6284773;28;20124;-61
2023/04/12 12:14:36;;;;;;;5.15;1.40;;;;;;;23.15;10.89;96943.38;6289694;28;20053;-63
2023/04/12 12:17:38;;;;;;;6.65;1.60;;;;;;;23.33;10.99;96939.63;6288239;28;20048;-60
2023/04/12 12:20:48;;;;;;;5.85;1.98;;;;;;;23.27;10.74;96946.53;6288531;28;20062;-62
2023/04/12 12:23:52;;;;;;;2.90;1.55;;;;;;;23.23;11.02;96937.97;6286528;28;20044;-62
2023/04/12 12:26:54;;;;;;;1.52;1.35;;;;;;;23.53;10.64;96935.44;6284285;28;20379;-61
2023/04/12 12:30:00;;;;;;;3.97;1.45;;;;;;;23.27;10.89;96931.25;6289747;28;20119;-61
2023/04/12 12:33:03;;;;;;;3.40;1.60;;;;;;;22.88;11.17;96931.28;6291311;28;20040;-62
2023/04/12 12:36:06;;;;;;;2.45;1.40;;;;;;;22.94;11.18;96943.16;6283301;28;20048;-60
2023/04/12 12:39:11;;;;;;;6.35;1.80;;;;;;;22.96;10.96;96943.84;6288700;28;20036;-61
2023/04/12 12:42:12;;;;;;;2.80;1.70;;;;;;;22.74;11.11;96937.38;6288733;28;20056;-63
2023/04/12 12:45:16;;;;;;;4.88;2.00;;;;;;;22.75;11.18;96944.41;6284878;28;20452;-60
2023/04/12 12:48:19;;;;;;;;;;;;;;;22.78;11.15;96936.84;6287602;28;20041;-60
2023/04/12 12:51:21;;;;;;;2.35;1.55;;;;;;;22.41;11.47;96940.16;6288377;28;19920;-60
2023/04/12 12:54:29;;;;;;;2.00;1.35;;;;;;;22.24;11.53;96933.19;6281922;28;20135;-61
2023/04/12 12:57:36;;;;;;;3.30;1.60;;;;;;;22.25;11.42;96933.03;6284430;28;20036;-63
2023/04/12 13:00:43;;;;;;;2.25;1.50;;;;;;;22.22;11.41;96933.34;6289453;28;20032;-61
2023/04/12 13:03:52;;;;;;;1.85;1.40;;;;;;;22.24;11.11;96928.66;6289751;28;20163;-63
2023/04/12 13:06:56;;;;;;;2.80;1.35;;;;;;;22.42;11.22;96931.13;6285026;28;20087;-62
2023/04/12 13:09:58;;;;;;;4.60;1.60;;;;;;;22.52;11.36;96936.28;6290474;28;20049;-62
2023/04/12 13:13:02;;;;;;;2.72;2.00;;;;;;;22.22;11.47;96933.34;6290825;28;20040;-62
2023/04/12 13:16:04;;;;;;;5.32;1.70;;;;;;;21.52;11.79;96929.38;6282018;28;20048;-63
2023/04/12 13:19:05;;;;;;;6.03;1.73;;;;;;;21.06;12.06;96925.41;6290083;28;20059;-62
2023/04/12 13:22:12;;;;;;;2.78;1.75;;;;;;;20.73;12.16;96927.16;6293939;28;20021;-62
2023/04/12 13:25:13;;;;;;;5.10;1.75;;;;;;;20.35;12.77;96929.28;6294855;28;20051;-62
2023/04/12 13:28:15;;;;;;;9.93;4.05;;;;;;;19.80;13.00;96927.78;6294988;28;20056;-62
2023/04/12 13:31:17;;;;;;;8.15;4.55;;;;;;;19.36;13.21;96926.88;6294743;28;20036;-63
2023/04/12 13:34:18;;;;;;;6.68;3.60;;;;;;;18.91;13.82;96925.09;6294902;28;20052;-62
2023/04/12 13:37:23;;;;;;;4.80;2.30;;;;;;;18.52;13.91;96918.16;6290332;28;20041;-62
2023/04/12 13:40:28;;;;;;;6.40;2.92;;;;;;;18.24;14.05;96925.28;6293374;28;20040;-63
2023/04/12 13:43:29;;;;;;;6.38;2.50;;;;;;;18.17;14.47;96934.81;6288728;28;20051;-62
2023/04/12 13:46:31;;;;;;;6.43;3.20;;;;;;;18.05;14.28;96928.81;6294782;28;20181;-62
2023/04/12 13:49:39;;;;;;;5.03;2.80;;;;;;;17.91;14.42;96930.13;6295212;28;20119;-62
2023/04/12 13:52:45;;;;;;;6.35;3.53;;;;;;;17.63;14.83;96933.66;6294418;28;20045;-64
2023/04/12 13:55:49;;;;;;;8.38;3.05;;;;;;;17.40;15.00;96933.94;6294583;28;20040;-62
2023/04/12 13:58:52;;;;;;;;;;;;;;;17.21;14.81;96936.59;6289445;28;20064;-62
2023/04/12 14:01:57;;;;;;;6.45;2.00;;;;;;;17.08;15.31;96936.03;6293248;28;19920;-62
2023/04/12 14:05:01;;;;;;;3.70;2.15;;;;;;;17.00;15.32;96937.56;6288742;28;20500;-62
2023/04/12 14:08:03;;;;;;;4.82;2.42;;;;;;;17.04;15.38;96938.13;6293989;28;20048;-63
2023/04/12 14:11:06;;;;;;;6.25;2.50;;;;;;;17.04;15.53;96941.63;6292639;28;20047;-62
2023/04/12 14:14:10;;;;;;;7.00;2.92;;;;;;;16.88;15.83;96940.50;6293084;28;20494;-62
2023/04/12 14:17:11;;;;;;;5.65;3.95;;;;;;;16.61;15.73;96945.41;6291275;28;20055;-62
2023/04/12 14:20:15;;;;;;;7.85;3.55;;;;;;;16.35;15.97;96945.03;6288415;28;20045;-62
2023/04/12 14:23:17;;;;;;;8.15;3.58;;;;;;;16.11;16.44;96942.72;6285489;28;20053;-62
2023/04/12 14:26:22;;;;;;;8.85;4.03;;;;;;;15.93;16.42;96950.41;6294097;28;20051;-62
2023/04/12 14:29:29;;;;;;;10.18;3.80;;;;;;;15.68;16.72;96957.00;6290090;28;20040;-64
2023/04/12 14:32:33;;;;;;;10.45;4.00;;;;;;;15.42;17.02;96953.81;6293669;28;20044;-63
2023/04/12 14:35:39;;;;;;;11.20;3.42;;;;;;;15.19;17.15;96966.31;6293175;28;20040;-63
2023/04/12 14:38:46;;;;;;;7.95;3.50;;;;;;;14.96;17.71;96967.34;6293649;28;20048;-63